createdAt,value
2022-10-30T00:00:58.655Z,64.61523
2022-10-30T00:02:59.317Z,66.0957
2022-10-30T00:04:58.521Z,64.98047
2022-10-30T00:08:30.641Z,64.9834
2022-10-30T00:10:30.538Z,64.6748
2022-10-30T00:12:30.469Z,64.41016
2022-10-30T00:14:30.455Z,64.14258
2022-10-30T00:16:30.509Z,64.31348
2022-10-30T00:18:30.446Z,64.46387
2022-10-30T00:20:30.563Z,64.37012
2022-10-30T00:23:56.504Z,65.23047
2022-10-30T00:25:56.469Z,65.01367
2022-10-30T00:27:56.529Z,64.77539
2022-10-30T00:29:56.524Z,65.80957
2022-10-30T00:31:56.469Z,64.99512
2022-10-30T00:33:56.459Z,64.35254
2022-10-30T00:35:56.429Z,67.01465
2022-10-30T00:38:28.026Z,67.25488
2022-10-30T00:40:28.009Z,67.13965
2022-10-30T00:42:27.978Z,65.62109
2022-10-30T00:44:28.033Z,64.93848
2022-10-30T00:46:28.027Z,64.97266
2022-10-30T00:48:28.004Z,65.33789
2022-10-30T00:52:28.111Z,64.98535
2022-10-30T00:54:12.955Z,64.77344
2022-10-30T00:56:12.881Z,66.38965
2022-10-30T00:58:12.787Z,65.60449
2022-10-30T01:00:12.975Z,67.2959
2022-10-30T01:02:13.435Z,66.24316
2022-10-30T01:04:12.899Z,65.00391
2022-10-30T01:06:12.798Z,65.03516
2022-10-30T01:09:00.124Z,65.25293
2022-10-30T01:10:52.635Z,65.33887
2022-10-30T01:12:52.666Z,65.19141
2022-10-30T01:14:52.751Z,65.08496
2022-10-30T01:16:52.655Z,64.89844
2022-10-30T01:18:52.838Z,65.01953
2022-10-30T01:20:52.646Z,65.47949
2022-10-30T01:24:45.042Z,65.05371
2022-10-30T01:26:44.899Z,65.51465
2022-10-30T01:28:44.655Z,65.08398
2022-10-30T01:30:44.725Z,65.61523
2022-10-30T01:32:44.642Z,65.12793
2022-10-30T01:34:44.711Z,65.76074
2022-10-30T01:36:44.659Z,65.50391
2022-10-30T01:39:36.370Z,65.56738
2022-10-30T01:41:36.074Z,66.47949
2022-10-30T01:43:36.237Z,65.54883
2022-10-30T01:45:36.053Z,65.4873
2022-10-30T01:47:36.331Z,65.68359
2022-10-30T01:49:36.254Z,65.94434
2022-10-30T01:51:36.388Z,65.24707
2022-10-30T01:54:24.043Z,65.73145
2022-10-30T01:56:24.133Z,65.58008
2022-10-30T01:58:23.901Z,65.88672
2022-10-30T02:00:23.902Z,66.04199
2022-10-30T02:02:24.442Z,65.75293
2022-10-30T02:04:23.916Z,65.78711
2022-10-30T02:06:23.894Z,65.88672
2022-10-30T02:09:29.992Z,65.39648
2022-10-30T02:11:29.943Z,66.01758
2022-10-30T02:13:30.024Z,65.94629
2022-10-30T02:15:29.958Z,65.76953
2022-10-30T02:17:29.912Z,65.75098
2022-10-30T02:19:29.989Z,65.66797
2022-10-30T02:21:29.891Z,65.60254
2022-10-30T02:24:38.117Z,65.625
2022-10-30T02:26:38.078Z,65.94629
2022-10-30T02:28:38.153Z,66.09277
2022-10-30T02:30:38.399Z,65.96289
2022-10-30T02:32:38.418Z,66.0625
2022-10-30T02:34:38.356Z,66.80566
2022-10-30T02:36:38.390Z,66.7168
2022-10-30T02:40:10.398Z,66.79004
2022-10-30T02:42:10.208Z,66.31738
2022-10-30T02:44:10.218Z,67.40723
2022-10-30T02:46:10.101Z,67.59375
2022-10-30T02:50:10.120Z,69.36621
2022-10-30T02:52:10.142Z,68.82422
2022-10-30T02:55:23.078Z,68.03223
2022-10-30T02:57:23.128Z,67.62891
2022-10-30T02:59:23.261Z,68.30078
2022-10-30T03:01:23.605Z,69.7793
2022-10-30T03:03:24.548Z,70.11523
2022-10-30T03:05:23.170Z,68.94531
2022-10-30T03:07:23.109Z,68.58301
2022-10-30T03:10:20.268Z,68.20508
2022-10-30T03:12:20.532Z,68.15332
2022-10-30T03:14:20.285Z,67.6709
2022-10-30T03:16:20.441Z,68.26855
2022-10-30T03:18:20.226Z,70.20605
2022-10-30T03:20:20.275Z,70.7168
2022-10-30T03:22:20.292Z,69.64551
2022-10-30T03:25:48.792Z,68.75293
2022-10-30T03:27:48.757Z,67.77344
2022-10-30T03:29:48.729Z,67.43164
2022-10-30T03:31:48.686Z,67.1875
2022-10-30T03:33:48.714Z,67.3877
2022-10-30T03:35:48.759Z,67.30566
2022-10-30T03:37:48.746Z,66.90723
2022-10-30T03:40:18.821Z,66.79688
2022-10-30T03:42:18.854Z,66.72852
2022-10-30T03:44:18.767Z,67.19238
2022-10-30T03:46:18.754Z,67.02246
2022-10-30T03:48:18.708Z,67.46582
2022-10-30T03:50:18.766Z,67.34277
2022-10-30T03:52:18.778Z,66.78809
2022-10-30T03:54:18.720Z,66.65918
2022-10-30T03:56:16.617Z,67.44531
2022-10-30T03:58:16.263Z,67.60938
2022-10-30T04:00:16.387Z,66.69043
2022-10-30T04:02:17.054Z,66.59961
2022-10-30T04:04:16.335Z,66.43945
2022-10-30T04:06:16.435Z,67.37695
2022-10-30T04:08:16.414Z,66.9082
2022-10-30T04:11:00.297Z,66.58887
2022-10-30T04:13:00.743Z,66.7666
2022-10-30T04:15:00.137Z,66.55176
2022-10-30T04:17:00.555Z,66.86133
2022-10-30T04:19:00.270Z,66.98535
2022-10-30T04:21:00.236Z,67.2832
2022-10-30T04:23:00.235Z,66.8291
2022-10-30T04:25:57.853Z,66.21094
2022-10-30T04:27:58.619Z,67.0752
2022-10-30T04:29:57.924Z,68.78613
2022-10-30T04:31:58.047Z,67.51465
2022-10-30T04:33:57.976Z,67.10156
2022-10-30T04:35:57.958Z,67.7207
2022-10-30T04:37:58.062Z,69.43652
2022-10-30T04:41:26.213Z,67.94824
2022-10-30T04:43:26.216Z,67.54395
2022-10-30T04:45:26.230Z,68.37598
2022-10-30T04:47:26.337Z,69.61523
2022-10-30T04:49:26.235Z,68.46484
2022-10-30T04:51:26.227Z,67.64746
2022-10-30T04:53:26.254Z,67.67578
2022-10-30T04:56:16.850Z,68.80957
2022-10-30T04:58:16.812Z,69.06348
2022-10-30T05:00:16.826Z,68.78711
2022-10-30T05:02:17.284Z,67.90918
2022-10-30T05:04:17.050Z,67.7793
2022-10-30T05:06:16.770Z,67.7041
2022-10-30T05:08:16.865Z,68.37891
2022-10-30T05:12:02.681Z,68.34668
2022-10-30T05:14:02.701Z,67.74805
2022-10-30T05:16:02.662Z,67.30664
2022-10-30T05:18:02.999Z,67.14551
2022-10-30T05:20:02.655Z,67.22949
2022-10-30T05:22:02.713Z,66.91895
2022-10-30T05:24:02.834Z,66.98828
2022-10-30T05:27:11.691Z,66.23926
2022-10-30T05:29:11.751Z,66.1123
2022-10-30T05:31:11.700Z,66.37695
2022-10-30T05:33:11.700Z,66.34766
2022-10-30T05:35:11.859Z,68.05957
2022-10-30T05:37:11.757Z,67.37695
2022-10-30T05:39:11.716Z,66.61719
2022-10-30T05:42:19.641Z,67.16211
2022-10-30T05:44:54.968Z,66.57715
2022-10-30T05:46:19.752Z,66.61133
2022-10-30T05:48:19.662Z,67.61133
2022-10-30T05:50:19.588Z,67.10059
2022-10-30T05:52:19.690Z,66.71484
2022-10-30T05:54:19.608Z,66.45313
2022-10-30T05:57:29.441Z,68.51563
2022-10-30T05:59:29.478Z,68.64648
2022-10-30T06:01:29.729Z,67.85156
2022-10-30T06:03:29.501Z,67.84863
2022-10-30T06:05:29.497Z,68.42676
2022-10-30T06:07:29.459Z,68.46777
2022-10-30T06:09:29.413Z,68.44531
2022-10-30T06:12:00.418Z,68.13477
2022-10-30T06:14:00.310Z,68.08887
2022-10-30T06:16:00.382Z,69.12988
2022-10-30T06:18:01.312Z,69.53418
2022-10-30T06:20:00.299Z,68.37988
2022-10-30T06:22:00.239Z,67.89355
2022-10-30T06:24:00.361Z,67.33008
2022-10-30T06:26:00.268Z,68.41504
2022-10-30T06:27:36.396Z,68.50195
2022-10-30T06:29:36.464Z,68.47168
2022-10-30T06:31:36.347Z,68.30469
2022-10-30T06:33:36.427Z,68.50293
2022-10-30T06:35:36.390Z,68.53711
2022-10-30T06:37:36.482Z,67.33984
2022-10-30T06:39:36.402Z,66.40625
2022-10-30T06:42:39.940Z,66.73633
2022-10-30T06:44:39.906Z,66.44141
2022-10-30T06:46:39.914Z,66.58789
2022-10-30T06:48:39.832Z,66.33789
2022-10-30T06:50:39.826Z,67.11816
2022-10-30T06:52:39.820Z,66.02734
2022-10-30T06:54:39.852Z,66.07422
2022-10-30T06:57:32.274Z,66.45801
2022-10-30T06:59:32.181Z,66.2373
2022-10-30T07:01:32.341Z,66.08887
2022-10-30T07:03:32.225Z,65.00879
2022-10-30T07:05:32.580Z,65.42285
2022-10-30T07:07:32.134Z,66.68945
2022-10-30T07:09:32.154Z,65.83984
2022-10-30T07:11:32.174Z,66.09473
2022-10-30T07:13:32.019Z,65.66895
2022-10-30T07:15:32.172Z,66.20117
2022-10-30T07:17:32.108Z,66.47949
2022-10-30T07:19:32.079Z,65.31348
2022-10-30T07:21:32.069Z,64.50195
2022-10-30T07:23:32.006Z,64.96289
2022-10-30T07:25:32.074Z,65.08887
2022-10-30T07:27:54.828Z,65.30566
2022-10-30T07:29:54.917Z,65.24609
2022-10-30T07:32:03.886Z,64.9082
2022-10-30T07:33:54.850Z,64.78613
2022-10-30T07:35:54.860Z,63.41992
2022-10-30T07:37:54.832Z,63.8877
2022-10-30T07:39:55.303Z,64.45215
2022-10-30T07:42:53.010Z,63.50781
2022-10-30T07:44:53.160Z,62.24316
2022-10-30T07:46:53.170Z,62.07031
2022-10-30T07:48:53.227Z,63.01563
2022-10-30T07:50:53.264Z,61.26563
2022-10-30T07:52:53.462Z,59.90723
2022-10-30T07:54:53.320Z,61.20996
2022-10-30T07:56:53.513Z,61.36035
2022-10-30T07:58:21.606Z,61.24805
2022-10-30T08:00:21.666Z,61.34082
2022-10-30T08:02:21.748Z,60.47461
2022-10-30T08:04:21.538Z,59.41211
2022-10-30T08:06:27.139Z,59.13379
2022-10-30T08:08:21.546Z,59.73633
2022-10-30T08:10:21.549Z,58.21582
2022-10-30T08:13:29.409Z,58.73633
2022-10-30T08:15:29.363Z,58.67188
2022-10-30T08:17:29.317Z,58.70898
2022-10-30T08:19:29.360Z,58.02637
2022-10-30T08:21:29.358Z,58.55957
2022-10-30T08:23:29.292Z,58.07129
2022-10-30T08:25:29.304Z,57.49805
2022-10-30T08:28:34.663Z,55.93164
2022-10-30T08:30:34.921Z,55.45508
2022-10-30T08:32:34.657Z,55.24219
2022-10-30T08:34:34.902Z,54.4043
2022-10-30T08:36:35.043Z,54.4834
2022-10-30T08:38:34.771Z,54.42773
2022-10-30T08:40:34.729Z,53.45703
2022-10-30T08:43:50.235Z,54.58691
2022-10-30T08:45:50.268Z,52.74805
2022-10-30T08:47:50.209Z,52.80371
2022-10-30T08:49:50.220Z,53.04688
2022-10-30T08:51:50.169Z,52.87793
2022-10-30T08:53:50.225Z,51.72559
2022-10-30T08:55:50.235Z,51.30859
2022-10-30T08:58:58.561Z,50.46777
2022-10-30T09:01:01.903Z,50.17773
2022-10-30T09:02:59.472Z,50.08789
2022-10-30T09:04:58.756Z,49.92773
2022-10-30T09:06:58.547Z,49.9082
2022-10-30T09:08:58.583Z,49.27637
2022-10-30T09:10:58.568Z,48.6543
2022-10-30T09:14:40.252Z,47.20508
2022-10-30T09:16:40.302Z,47.33496
2022-10-30T09:18:40.290Z,46.38867
2022-10-30T09:20:40.134Z,46.47168
2022-10-30T09:22:40.242Z,46.33398
2022-10-30T09:24:40.310Z,45.22852
2022-10-30T09:26:40.108Z,44.74316
2022-10-30T09:29:48.222Z,44.18359
2022-10-30T09:31:48.279Z,44.7666
2022-10-30T09:33:48.228Z,43.90234
2022-10-30T09:35:48.220Z,43.17285
2022-10-30T09:37:48.241Z,43.28516
2022-10-30T09:39:48.230Z,43.51074
2022-10-30T09:41:51.290Z,42.1084
2022-10-30T09:44:30.849Z,41.50977
2022-10-30T09:46:30.836Z,41.60254
2022-10-30T09:48:30.863Z,40.94727
2022-10-30T09:50:35.689Z,40.55859
2022-10-30T09:52:30.814Z,39.65234
2022-10-30T09:54:30.937Z,40.00781
2022-10-30T09:56:30.819Z,40.21484
2022-10-30T09:59:56.815Z,39.5791
2022-10-30T10:01:57.281Z,39.69434
2022-10-30T10:03:57.097Z,39.26563
2022-10-30T10:05:57.906Z,39.22559
2022-10-30T10:07:57.710Z,38.74609
2022-10-30T10:09:57.214Z,38.77344
2022-10-30T10:11:56.933Z,38.9834
2022-10-30T10:14:46.267Z,38.61133
2022-10-30T10:16:46.045Z,38.71484
2022-10-30T10:18:46.050Z,38.70703
2022-10-30T10:20:46.143Z,38.49023
2022-10-30T10:22:46.017Z,37.28906
2022-10-30T10:24:46.053Z,37.26953
2022-10-30T10:26:46.200Z,36.87891
2022-10-30T10:29:59.068Z,37.6084
2022-10-30T10:31:59.008Z,37.50879
2022-10-30T10:33:59.071Z,37.19922
2022-10-30T10:35:59.108Z,37.18359
2022-10-30T10:37:59.713Z,36.7002
2022-10-30T10:39:59.003Z,36.1709
2022-10-30T10:41:59.051Z,36.86035
2022-10-30T10:45:40.836Z,36.39648
2022-10-30T10:47:40.846Z,35.32422
2022-10-30T10:49:40.892Z,35.6875
2022-10-30T10:51:40.915Z,35.62695
2022-10-30T10:53:40.917Z,35.40137
2022-10-30T10:55:40.922Z,34.20508
2022-10-30T10:57:40.869Z,34.94434
2022-10-30T11:00:55.446Z,34.82715
2022-10-30T11:02:55.431Z,34.69043
2022-10-30T11:04:55.370Z,33.63574
2022-10-30T11:06:55.318Z,33.23145
2022-10-30T11:08:55.243Z,33.21484
2022-10-30T11:10:55.406Z,32.90527
2022-10-30T11:12:55.460Z,33.02051
2022-10-30T11:15:28.120Z,32.70703
2022-10-30T11:17:28.079Z,32.60449
2022-10-30T11:19:28.096Z,33.27539
2022-10-30T11:21:28.105Z,32.78711
2022-10-30T11:23:28.123Z,33.50684
2022-10-30T11:25:31.421Z,33.25879
2022-10-30T11:27:28.076Z,32.84766
2022-10-30T11:30:32.963Z,32.55078
2022-10-30T11:32:33.137Z,32.42383
2022-10-30T11:34:33.044Z,32.4502
2022-10-30T11:36:32.928Z,32.1084
2022-10-30T11:38:32.971Z,31.53418
2022-10-30T11:40:32.967Z,31.75195
2022-10-30T11:42:32.940Z,32.11523
2022-10-30T11:46:12.316Z,31.05469
2022-10-30T11:48:14.709Z,30.89355
2022-10-30T11:50:12.345Z,30.62988
2022-10-30T11:52:12.258Z,31.35742
2022-10-30T11:54:12.416Z,31.69629
2022-10-30T11:56:12.327Z,31.12305
2022-10-30T11:58:12.318Z,31.04004
2022-10-30T12:01:19.398Z,30.07324
2022-10-30T12:03:19.268Z,31.28027
2022-10-30T12:05:19.249Z,31.07715
2022-10-30T12:07:19.262Z,30.05371
2022-10-30T12:09:19.356Z,29.99609
2022-10-30T12:11:25.184Z,30.08691
2022-10-30T12:13:19.326Z,29.93945
2022-10-30T12:16:24.512Z,30.27148
2022-10-30T12:18:24.529Z,29.40234
2022-10-30T12:20:24.498Z,29.61914
2022-10-30T12:22:24.646Z,29.22852
2022-10-30T12:24:24.839Z,29.33496
2022-10-30T12:26:24.481Z,29.2666
2022-10-30T12:28:24.462Z,29.60059
2022-10-30T12:31:30.677Z,29.17188
2022-10-30T12:33:30.650Z,29.42871
2022-10-30T12:35:30.636Z,28.7373
2022-10-30T12:37:30.686Z,29.1416
2022-10-30T12:39:30.720Z,29.6377
2022-10-30T12:41:30.658Z,29.61035
2022-10-30T12:43:30.641Z,28.65039
2022-10-30T12:46:47.177Z,29.33496
2022-10-30T12:48:47.220Z,29.15039
2022-10-30T12:50:47.197Z,28.73926
2022-10-30T12:52:47.166Z,29.07129
2022-10-30T12:54:47.688Z,29.19629
2022-10-30T12:56:47.173Z,30.17676
2022-10-30T12:58:47.368Z,29.37891
2022-10-30T13:01:32.283Z,29.3623
2022-10-30T13:03:31.957Z,29.88574
2022-10-30T13:05:31.949Z,29.73828
2022-10-30T13:07:31.944Z,29.7832
2022-10-30T13:09:31.905Z,29.7998
2022-10-30T13:11:31.975Z,29.4375
2022-10-30T13:13:31.873Z,29.05664
2022-10-30T13:17:21.148Z,29.42285
2022-10-30T13:19:21.130Z,29.4834
2022-10-30T13:21:21.189Z,30.06543
2022-10-30T13:23:21.280Z,30.0498
2022-10-30T13:25:21.368Z,30.19629
2022-10-30T13:27:21.402Z,30.08984
2022-10-30T13:29:21.166Z,29.80762
2022-10-30T13:32:30.555Z,29.69336
2022-10-30T13:34:30.566Z,29.9541
2022-10-30T13:36:30.650Z,30.33398
2022-10-30T13:38:30.539Z,30.49316
2022-10-30T13:40:30.508Z,30.35547
2022-10-30T13:42:30.968Z,30.57617
2022-10-30T13:44:30.611Z,30.32129
2022-10-30T13:47:39.336Z,30.52734
2022-10-30T13:49:39.347Z,30.71484
2022-10-30T13:51:39.289Z,30.87207
2022-10-30T13:53:39.284Z,30.75
2022-10-30T13:55:39.324Z,30.61035
2022-10-30T13:57:39.414Z,30.50391
2022-10-30T13:59:39.296Z,30.47266
2022-10-30T14:02:17.102Z,31.00391
2022-10-30T14:04:16.830Z,31.01953
2022-10-30T14:06:16.733Z,31.25586
2022-10-30T14:08:16.802Z,31.1748
2022-10-30T14:10:16.720Z,31.87109
2022-10-30T14:12:16.736Z,32.03223
2022-10-30T14:14:16.752Z,31.8418
2022-10-30T14:17:40.099Z,31.83789
2022-10-30T14:19:40.126Z,32.11133
2022-10-30T14:21:40.089Z,32.0957
2022-10-30T14:23:40.107Z,32.20508
2022-10-30T14:25:40.064Z,32.39453
2022-10-30T14:27:40.120Z,32.67676
2022-10-30T14:29:40.219Z,32.64844
2022-10-30T14:32:45.840Z,32.82422
2022-10-30T14:34:45.761Z,32.85742
2022-10-30T14:36:45.748Z,33.11426
2022-10-30T14:38:45.722Z,33.60645
2022-10-30T14:40:45.833Z,33.90039
2022-10-30T14:42:45.796Z,34.26465
2022-10-30T14:44:45.922Z,34.37988
2022-10-30T14:47:45.122Z,34.58594
2022-10-30T14:49:45.109Z,34.24805
2022-10-30T14:51:45.134Z,34.68945
2022-10-30T14:53:45.190Z,34.85254
2022-10-30T14:55:45.075Z,34.84668
2022-10-30T14:57:45.106Z,35.13184
2022-10-30T14:59:45.101Z,34.91895
2022-10-30T15:02:54.806Z,35.30371
2022-10-30T15:04:53.973Z,35.91211
2022-10-30T15:06:53.978Z,36.47168
2022-10-30T15:08:53.962Z,36.66895
2022-10-30T15:10:53.878Z,36.76172
2022-10-30T15:12:58.345Z,36.96289
2022-10-30T15:14:55.163Z,37.0498
2022-10-30T15:18:16.060Z,36.84473
2022-10-30T15:20:14.044Z,36.89453
2022-10-30T15:22:13.961Z,37.0918
2022-10-30T15:24:14.035Z,37.29688
2022-10-30T15:26:13.803Z,37.40137
2022-10-30T15:28:13.987Z,37.34863
2022-10-30T15:30:13.826Z,37.43848
2022-10-30T15:33:38.635Z,37.99707
2022-10-30T15:35:38.672Z,38.30273
2022-10-30T15:37:38.540Z,38.31836
2022-10-30T15:39:38.660Z,38.49902
2022-10-30T15:41:38.619Z,38.70117
2022-10-30T15:43:38.619Z,38.76367
2022-10-30T15:45:38.522Z,39.29004
2022-10-30T15:48:59.911Z,39.27734
2022-10-30T15:50:59.887Z,39.22168
2022-10-30T15:52:59.850Z,39.47949
2022-10-30T15:54:59.908Z,39.77051
2022-10-30T15:57:36.856Z,39.85156
2022-10-30T15:58:59.838Z,40.16406
2022-10-30T16:01:00.176Z,40.22656
2022-10-30T16:04:15.831Z,40.3418
2022-10-30T16:06:15.738Z,40.45313
2022-10-30T16:08:15.789Z,40.86719
2022-10-30T16:10:15.855Z,40.90234
2022-10-30T16:12:15.781Z,40.95117
2022-10-30T16:14:15.797Z,40.6709
2022-10-30T16:19:05.685Z,40.62207
2022-10-30T16:21:05.634Z,40.86914
2022-10-30T16:23:05.655Z,41.02051
2022-10-30T16:25:05.613Z,40.94727
2022-10-30T16:27:05.619Z,41.11523
2022-10-30T16:29:05.671Z,41.12207
2022-10-30T16:31:05.590Z,40.96777
2022-10-30T16:34:03.622Z,41.15625
2022-10-30T16:36:02.741Z,41.45313
2022-10-30T16:38:02.787Z,41.58789
2022-10-30T16:40:02.960Z,42.03711
2022-10-30T16:42:02.876Z,42.13281
2022-10-30T16:44:03.007Z,42.62207
2022-10-30T16:46:02.966Z,42.5752
2022-10-30T16:48:50.635Z,42.13281
2022-10-30T16:50:50.316Z,42.63281
2022-10-30T16:52:50.168Z,42.75781
2022-10-30T16:54:50.654Z,42.60645
2022-10-30T16:56:50.360Z,42.72363
2022-10-30T16:58:50.261Z,43.07129
2022-10-30T17:00:50.377Z,42.7627
2022-10-30T17:02:50.325Z,42.90332
2022-10-30T17:04:42.074Z,42.88477
2022-10-30T17:06:42.170Z,42.98438
2022-10-30T17:08:42.067Z,43.09375
2022-10-30T17:10:42.197Z,43.4502
2022-10-30T17:12:42.092Z,43.73047
2022-10-30T17:14:42.073Z,43.78125
2022-10-30T17:16:42.207Z,43.77441
2022-10-30T17:20:03.980Z,44.02246
2022-10-30T17:22:03.806Z,44.15137
2022-10-30T17:24:03.831Z,44.06934
2022-10-30T17:26:03.878Z,44.21094
2022-10-30T17:28:03.813Z,44.59961
2022-10-30T17:30:03.822Z,44.44238
2022-10-30T17:32:03.835Z,44.55078
2022-10-30T17:35:10.097Z,45.13477
2022-10-30T17:37:10.133Z,45.125
2022-10-30T17:39:10.044Z,45.95801
2022-10-30T17:41:10.341Z,45.6416
2022-10-30T17:43:10.070Z,45.4541
2022-10-30T17:45:10.042Z,45.54199
2022-10-30T17:47:10.201Z,45.84473
2022-10-30T17:50:11.591Z,45.96484
2022-10-30T17:52:11.583Z,46.08203
2022-10-30T17:54:11.604Z,46.35449
2022-10-30T17:56:11.536Z,46.0498
2022-10-30T17:58:11.954Z,46.42773
2022-10-30T18:00:11.563Z,46.83691
2022-10-30T18:02:11.863Z,47.29883
2022-10-30T18:04:43.830Z,47.15625
2022-10-30T18:06:44.012Z,47.24707
2022-10-30T18:08:50.519Z,47.20508
2022-10-30T18:10:43.908Z,47.47656
2022-10-30T18:12:43.985Z,47.40625
2022-10-30T18:14:43.945Z,47.33203
2022-10-30T18:16:43.830Z,47.53906
2022-10-30T18:18:43.925Z,47.80664
2022-10-30T18:20:20.234Z,47.93262
2022-10-30T18:22:20.245Z,47.87793
2022-10-30T18:24:20.305Z,48.05859
2022-10-30T18:26:20.128Z,48.02246
2022-10-30T18:28:20.069Z,47.86328
2022-10-30T18:30:20.170Z,48.19434
2022-10-30T18:32:20.509Z,48.07227
2022-10-30T18:35:06.107Z,48.56152
2022-10-30T18:37:06.188Z,48.3623
2022-10-30T18:39:06.115Z,48.47266
2022-10-30T18:41:06.065Z,48.59668
2022-10-30T18:43:06.121Z,48.5625
2022-10-30T18:45:06.001Z,48.52344
2022-10-30T18:47:06.101Z,49.08398
2022-10-30T18:49:06.053Z,48.82129
2022-10-30T18:50:35.762Z,48.65234
2022-10-30T18:52:35.936Z,48.76758
2022-10-30T18:54:35.748Z,49.11133
2022-10-30T18:56:35.881Z,49.48926
2022-10-30T18:58:35.965Z,49.31152
2022-10-30T19:01:10.296Z,49.22168
2022-10-30T19:02:36.058Z,49.45898
2022-10-30T19:05:29.777Z,49.2793
2022-10-30T19:07:29.599Z,49.55273
2022-10-30T19:09:29.570Z,49.79297
2022-10-30T19:11:32.313Z,49.48926
2022-10-30T19:13:29.785Z,49.52148
2022-10-30T19:15:29.550Z,49.91797
2022-10-30T19:17:29.561Z,50.00684
2022-10-30T19:21:03.650Z,50.26074
2022-10-30T19:22:39.168Z,50.3291
2022-10-30T19:24:39.172Z,50.66992
2022-10-30T19:26:39.122Z,50.65332
2022-10-30T19:28:39.221Z,50.88672
2022-10-30T19:30:39.123Z,50.9873
2022-10-30T19:32:39.127Z,51.08008
2022-10-30T19:36:19.852Z,50.97754
2022-10-30T19:38:19.786Z,50.875
2022-10-30T19:40:19.985Z,50.99707
2022-10-30T19:42:19.835Z,51.33594
2022-10-30T19:44:19.806Z,51.28809
2022-10-30T19:46:19.787Z,51.38086
2022-10-30T19:48:48.020Z,51.29297
2022-10-30T19:51:25.728Z,51.48047
2022-10-30T19:53:25.645Z,51.89746
2022-10-30T19:55:25.597Z,51.74805
2022-10-30T19:57:25.659Z,51.55957
2022-10-30T19:59:25.791Z,51.75977
2022-10-30T20:01:25.965Z,51.65723
2022-10-30T20:03:25.600Z,52.68164
2022-10-30T20:06:34.612Z,51.82129
2022-10-30T20:08:34.604Z,52.32422
2022-10-30T20:10:34.565Z,52.40723
2022-10-30T20:12:34.626Z,51.90918
2022-10-30T20:14:34.564Z,52.30664
2022-10-30T20:16:34.550Z,52.16211
2022-10-30T20:18:34.609Z,51.95117
2022-10-30T20:21:26.534Z,51.86914
2022-10-30T20:23:26.609Z,52.06348
2022-10-30T20:25:26.559Z,52.11328
2022-10-30T20:27:26.503Z,52.03711
2022-10-30T20:29:26.611Z,52.38086
2022-10-30T20:31:26.455Z,52.41797
2022-10-30T20:33:26.428Z,52.19336
2022-10-30T20:36:35.883Z,52.76563
2022-10-30T20:38:35.943Z,52.57324
2022-10-30T20:40:35.869Z,52.37109
2022-10-30T20:42:37.714Z,52.55078
2022-10-30T20:44:35.862Z,52.39258
2022-10-30T20:46:35.870Z,52.67969
2022-10-30T20:48:35.946Z,52.41797
2022-10-30T20:51:59.089Z,52.56543
2022-10-30T20:53:59.173Z,52.70508
2022-10-30T20:55:59.102Z,52.52539
2022-10-30T20:57:59.794Z,52.7832
2022-10-30T20:59:59.084Z,52.88281
2022-10-30T21:01:59.387Z,53.07617
2022-10-30T21:04:02.074Z,52.97168
2022-10-30T21:07:03.947Z,52.9668
2022-10-30T21:09:03.798Z,52.87012
2022-10-30T21:11:03.653Z,53.39746
2022-10-30T21:13:09.510Z,53.53711
2022-10-30T21:15:03.559Z,53.28809
2022-10-30T21:17:03.558Z,53.50977
2022-10-30T21:19:03.556Z,53.12402
2022-10-30T21:22:37.386Z,53.3623
2022-10-30T21:24:37.467Z,53.49023
2022-10-30T21:26:37.363Z,53.47559
2022-10-30T21:28:37.456Z,53.60156
2022-10-30T21:30:37.381Z,53.87695
2022-10-30T21:32:37.358Z,53.74316
2022-10-30T21:34:37.437Z,53.68164
2022-10-30T21:37:47.627Z,53.83496
2022-10-30T21:39:47.700Z,53.71191
2022-10-30T21:41:47.599Z,53.68457
2022-10-30T21:43:47.642Z,53.74902
2022-10-30T21:45:47.611Z,53.79688
2022-10-30T21:47:47.603Z,53.96387
2022-10-30T21:49:47.599Z,54.18262
2022-10-30T21:52:45.053Z,54.05957
2022-10-30T21:54:45.039Z,53.77148
2022-10-30T21:56:45.095Z,54.06348
2022-10-30T21:58:45.072Z,53.76758
2022-10-30T22:00:45.119Z,53.64551
2022-10-30T22:02:44.977Z,53.28809
2022-10-30T22:04:44.972Z,53.64844
2022-10-30T22:07:26.542Z,53.79785
2022-10-30T22:09:26.551Z,53.90332
2022-10-30T22:11:26.581Z,53.98242
2022-10-30T22:13:26.592Z,53.88574
2022-10-30T22:15:26.588Z,53.80371
2022-10-30T22:17:33.946Z,54.02734
2022-10-30T22:19:26.537Z,53.6084
2022-10-30T22:23:11.066Z,53.9873
2022-10-30T22:25:11.238Z,53.70898
2022-10-30T22:27:11.034Z,54.02734
2022-10-30T22:29:11.311Z,54.17188
2022-10-30T22:31:11.052Z,54.12402
2022-10-30T22:33:11.083Z,54.45996
2022-10-30T22:35:11.075Z,54.32227
2022-10-30T22:37:47.919Z,54.43164
2022-10-30T22:39:47.938Z,54.3291
2022-10-30T22:41:47.890Z,54.70313
2022-10-30T22:43:47.921Z,54.29492
2022-10-30T22:45:47.969Z,54.65137
2022-10-30T22:47:47.942Z,54.30664
2022-10-30T22:49:47.916Z,54.64648
2022-10-30T22:52:51.920Z,54.34766
2022-10-30T22:54:51.930Z,55.09473
2022-10-30T22:56:51.963Z,54.69043
2022-10-30T22:58:51.957Z,54.94824
2022-10-30T23:00:51.980Z,55.3623
2022-10-30T23:02:51.975Z,55.34766
2022-10-30T23:04:51.927Z,55.41406
2022-10-30T23:06:51.958Z,55.52539
2022-10-30T23:08:43.123Z,55.55566
2022-10-30T23:10:43.107Z,55.69238
2022-10-30T23:12:43.116Z,55.70605
2022-10-30T23:14:43.154Z,55.51465
2022-10-30T23:16:43.176Z,55.18457
2022-10-30T23:18:43.121Z,55.29883
2022-10-30T23:20:43.136Z,55.29004
2022-10-30T23:23:33.666Z,55.19727
2022-10-30T23:25:33.659Z,55.17383
2022-10-30T23:27:33.684Z,55.86523
2022-10-30T23:29:33.681Z,56.16504
2022-10-30T23:31:33.790Z,56.55078
2022-10-30T23:33:33.705Z,56.46582
2022-10-30T23:35:33.638Z,56.07031
2022-10-30T23:38:54.289Z,55.70605
2022-10-30T23:40:54.339Z,55.87402
2022-10-30T23:42:54.390Z,55.4707
2022-10-30T23:44:54.314Z,56.00391
2022-10-30T23:46:54.329Z,55.33594
2022-10-30T23:48:54.324Z,55.46875
2022-10-30T23:50:54.288Z,55.46289
2022-10-30T23:53:40.734Z,55.20215
2022-10-30T23:55:40.702Z,55.11328
2022-10-30T23:57:40.858Z,55.53418
2022-10-30T23:59:40.774Z,55.06934
